createdAt,value
2023-03-21T00:01:51.496Z,66.15
2023-03-21T00:04:19.418Z,66.42
2023-03-21T00:06:47.606Z,65.98
2023-03-21T00:09:16.929Z,66.15
2023-03-21T00:11:45.064Z,66.13
2023-03-21T00:14:14.514Z,66.32
2023-03-21T00:16:45.937Z,66.25
2023-03-21T00:19:14.651Z,66.05
2023-03-21T00:24:32.440Z,66.22
2023-03-21T00:27:21.645Z,66.22
2023-03-21T00:29:49.359Z,66.22
2023-03-21T00:32:17.306Z,66.24
2023-03-21T00:34:58.811Z,65.94
2023-03-21T00:37:30.328Z,66.29
2023-03-21T00:39:59.613Z,66.06
2023-03-21T00:42:28.021Z,66.09
2023-03-21T00:44:56.108Z,65.97
2023-03-21T00:47:25.856Z,66.26
2023-03-21T00:49:53.875Z,66.00
2023-03-21T00:52:34.209Z,66.13
2023-03-21T00:55:11.341Z,65.65
2023-03-21T00:57:39.896Z,65.98
2023-03-21T01:00:10.483Z,65.96
2023-03-21T01:02:38.624Z,65.91
2023-03-21T01:05:07.340Z,65.84
2023-03-21T01:07:35.415Z,65.97
2023-03-21T01:10:03.277Z,66.25
2023-03-21T01:12:32.524Z,66.24
2023-03-21T01:15:00.592Z,66.55
2023-03-21T01:17:28.511Z,66.33
2023-03-21T01:19:56.428Z,66.62
2023-03-21T01:22:24.484Z,66.82
2023-03-21T01:24:56.930Z,66.83
2023-03-21T01:27:28.582Z,66.74
2023-03-21T01:29:58.695Z,66.77
2023-03-21T01:32:26.699Z,66.64
2023-03-21T01:34:54.566Z,66.57
2023-03-21T01:37:22.740Z,66.95
2023-03-21T01:39:50.732Z,66.61
2023-03-21T01:42:18.612Z,66.98
2023-03-21T01:44:58.602Z,66.74
2023-03-21T01:47:26.662Z,67.15
2023-03-21T01:49:56.500Z,67.14
2023-03-21T01:52:36.406Z,67.28
2023-03-21T01:55:07.144Z,67.08
2023-03-21T01:57:45.110Z,67.56
2023-03-21T02:00:16.913Z,67.50
2023-03-21T02:02:52.554Z,67.62
2023-03-21T02:05:21.032Z,67.55
2023-03-21T02:07:48.969Z,67.59
2023-03-21T02:10:16.868Z,67.76
2023-03-21T02:12:45.331Z,67.38
2023-03-21T02:15:13.187Z,67.39
2023-03-21T02:17:44.683Z,67.55
2023-03-21T02:20:45.330Z,67.36
2023-03-21T02:23:57.835Z,67.82
2023-03-21T02:26:52.522Z,67.90
2023-03-21T02:29:54.238Z,67.98
2023-03-21T02:32:37.113Z,67.92
2023-03-21T02:35:16.391Z,67.83
2023-03-21T02:37:51.967Z,67.64
2023-03-21T02:40:24.843Z,67.83
2023-03-21T02:43:00.824Z,67.71
2023-03-21T02:45:30.173Z,67.73
2023-03-21T02:47:59.188Z,67.74
2023-03-21T02:50:29.957Z,67.46
2023-03-21T02:52:59.246Z,67.34
2023-03-21T02:55:27.755Z,67.57
2023-03-21T02:57:56.849Z,67.35
2023-03-21T03:00:26.766Z,67.42
2023-03-21T03:03:08.323Z,67.25
2023-03-21T03:05:41.009Z,67.46
2023-03-21T03:08:20.514Z,67.38
2023-03-21T03:10:56.652Z,67.32
2023-03-21T03:13:32.876Z,67.46
2023-03-21T03:16:05.305Z,67.36
2023-03-21T03:18:37.486Z,67.15
2023-03-21T03:21:09.042Z,66.93
2023-03-21T03:23:42.075Z,66.97
2023-03-21T03:26:10.505Z,66.91
2023-03-21T03:28:39.674Z,66.99
2023-03-21T03:31:10.152Z,66.72
2023-03-21T03:33:39.760Z,66.83
2023-03-21T03:36:10.865Z,66.70
2023-03-21T03:38:40.256Z,66.81
2023-03-21T03:41:10.579Z,66.75
2023-03-21T03:43:40.827Z,66.56
2023-03-21T03:46:12.364Z,66.57
2023-03-21T03:48:46.689Z,66.92
2023-03-21T03:51:17.045Z,66.74
2023-03-21T03:53:47.088Z,66.32
2023-03-21T03:56:14.929Z,66.47
2023-03-21T03:58:45.932Z,66.53
2023-03-21T04:01:14.204Z,66.52
2023-03-21T04:03:49.841Z,66.22
2023-03-21T04:06:19.129Z,66.52
2023-03-21T04:08:48.368Z,66.48
2023-03-21T04:11:16.404Z,66.29
2023-03-21T04:13:44.849Z,66.44
2023-03-21T04:16:12.952Z,66.50
2023-03-21T04:18:41.021Z,66.26
2023-03-21T04:21:10.813Z,66.15
2023-03-21T04:23:38.728Z,66.20
2023-03-21T04:26:08.322Z,66.32
2023-03-21T04:28:37.113Z,66.21
2023-03-21T04:31:11.089Z,66.20
2023-03-21T04:33:47.979Z,66.19
2023-03-21T04:36:25.198Z,66.28
2023-03-21T04:38:57.323Z,66.62
2023-03-21T04:41:26.602Z,66.69
2023-03-21T04:43:54.650Z,66.58
2023-03-21T04:46:22.560Z,66.77
2023-03-21T04:48:50.698Z,66.64
2023-03-21T04:51:18.659Z,66.62
2023-03-21T04:53:49.580Z,66.43
2023-03-21T04:56:17.832Z,66.79
2023-03-21T04:58:47.079Z,66.77
2023-03-21T05:01:14.992Z,66.70
2023-03-21T05:03:42.988Z,66.64
2023-03-21T05:06:11.265Z,66.92
2023-03-21T05:08:39.372Z,66.76
2023-03-21T05:11:07.573Z,66.71
2023-03-21T05:13:35.484Z,66.73
2023-03-21T05:16:04.940Z,66.81
2023-03-21T05:18:34.894Z,67.02
2023-03-21T05:21:04.271Z,67.08
2023-03-21T05:23:38.258Z,66.86
2023-03-21T05:26:07.794Z,66.89
2023-03-21T05:28:36.830Z,66.60
2023-03-21T05:31:06.561Z,66.65
2023-03-21T05:33:34.492Z,66.61
2023-03-21T05:36:02.475Z,66.57
2023-03-21T05:38:31.160Z,66.83
2023-03-21T05:40:59.057Z,66.86
2023-03-21T05:43:26.967Z,66.71
2023-03-21T05:45:54.962Z,66.85
2023-03-21T05:48:24.332Z,66.47
2023-03-21T05:50:52.175Z,66.54
2023-03-21T05:53:21.424Z,66.54
2023-03-21T05:55:50.719Z,66.94
2023-03-21T05:58:18.698Z,66.65
2023-03-21T06:00:46.656Z,66.53
2023-03-21T06:03:14.556Z,66.61
2023-03-21T06:05:43.802Z,66.85
2023-03-21T06:08:11.665Z,66.96
2023-03-21T06:10:39.575Z,67.04
2023-03-21T06:13:07.424Z,67.04
2023-03-21T06:15:35.600Z,67.16
2023-03-21T06:18:03.565Z,66.77
2023-03-21T06:20:31.454Z,66.83
2023-03-21T06:23:00.698Z,67.12
2023-03-21T06:25:29.002Z,67.16
2023-03-21T06:27:56.896Z,66.78
2023-03-21T06:30:24.987Z,66.87
2023-03-21T06:32:53.109Z,66.98
2023-03-21T06:35:21.170Z,66.86
2023-03-21T06:37:49.478Z,67.04
2023-03-21T06:40:19.069Z,66.96
2023-03-21T06:42:46.907Z,67.07
2023-03-21T06:45:14.750Z,67.23
2023-03-21T06:47:42.731Z,67.24
2023-03-21T06:50:11.843Z,67.16
2023-03-21T06:52:39.717Z,67.20
2023-03-21T06:55:09.201Z,67.48
2023-03-21T06:57:38.562Z,67.54
2023-03-21T07:00:08.957Z,67.44
2023-03-21T07:02:36.942Z,67.28
2023-03-21T07:05:05.399Z,67.62
2023-03-21T07:07:33.287Z,67.19
2023-03-21T07:10:01.214Z,67.27
2023-03-21T07:12:29.779Z,67.39
2023-03-21T07:14:59.177Z,67.30
2023-03-21T07:17:27.082Z,67.17
2023-03-21T07:19:55.363Z,66.98
2023-03-21T07:22:23.331Z,66.97
2023-03-21T07:25:03.967Z,66.89
2023-03-21T07:27:32.707Z,66.96
2023-03-21T07:30:01.953Z,67.14
2023-03-21T07:32:31.056Z,66.83
2023-03-21T07:35:01.647Z,66.98
2023-03-21T07:37:29.728Z,66.92
2023-03-21T07:39:57.716Z,67.05
2023-03-21T07:42:25.786Z,66.85
2023-03-21T07:44:55.088Z,66.79
2023-03-21T07:47:24.486Z,66.79
2023-03-21T07:49:52.426Z,66.69
2023-03-21T07:52:20.374Z,66.62
2023-03-21T07:54:48.266Z,66.74
2023-03-21T07:57:16.739Z,66.79
2023-03-21T07:59:44.661Z,66.62
2023-03-21T08:02:13.544Z,66.61
2023-03-21T08:04:43.211Z,66.63
2023-03-21T08:07:11.145Z,65.98
2023-03-21T08:09:39.004Z,65.91
2023-03-21T08:12:08.338Z,66.34
2023-03-21T08:14:36.952Z,66.22
2023-03-21T08:17:09.677Z,66.26
2023-03-21T08:19:37.790Z,65.94
2023-03-21T08:22:07.136Z,66.04
2023-03-21T08:24:35.764Z,65.83
2023-03-21T08:27:04.247Z,65.77
2023-03-21T08:29:32.278Z,65.22
2023-03-21T08:32:00.660Z,64.95
2023-03-21T08:34:28.613Z,64.94
2023-03-21T08:36:59.629Z,64.57
2023-03-21T08:39:29.083Z,64.18
2023-03-21T08:41:57.461Z,64.77
2023-03-21T08:44:26.142Z,63.93
2023-03-21T08:46:54.741Z,64.21
2023-03-21T08:49:22.773Z,63.92
2023-03-21T08:51:56.415Z,64.24
2023-03-21T08:54:24.548Z,64.89
2023-03-21T08:56:53.981Z,64.80
2023-03-21T08:59:22.246Z,64.85
2023-03-21T09:01:50.276Z,64.86
2023-03-21T09:04:19.143Z,65.00
2023-03-21T09:06:49.316Z,64.74
2023-03-21T09:09:18.032Z,64.73
2023-03-21T09:11:46.180Z,65.04
2023-03-21T09:14:15.728Z,64.95
2023-03-21T09:16:44.074Z,65.19
2023-03-21T09:19:12.925Z,64.85
2023-03-21T09:21:41.433Z,64.82
2023-03-21T09:24:09.855Z,64.93
2023-03-21T09:26:38.141Z,64.93
2023-03-21T09:29:07.745Z,65.05
2023-03-21T09:31:37.157Z,64.90
2023-03-21T09:34:05.053Z,64.32
2023-03-21T09:36:35.131Z,64.04
2023-03-21T09:39:04.071Z,64.13
2023-03-21T09:41:55.631Z,63.63
2023-03-21T09:44:32.247Z,63.56
2023-03-21T09:47:04.868Z,63.31
2023-03-21T09:49:34.609Z,62.96
2023-03-21T09:52:05.435Z,62.41
2023-03-21T09:54:36.143Z,62.58
2023-03-21T09:57:06.701Z,62.11
2023-03-21T09:59:38.240Z,62.23
2023-03-21T10:02:15.462Z,61.74
2023-03-21T10:04:46.668Z,61.43
2023-03-21T10:07:18.221Z,60.83
2023-03-21T10:09:47.178Z,60.08
2023-03-21T10:12:17.710Z,59.71
2023-03-21T10:14:46.500Z,59.47
2023-03-21T10:17:23.378Z,59.13
2023-03-21T10:19:51.357Z,59.48
2023-03-21T10:22:19.436Z,59.62
2023-03-21T10:24:47.318Z,59.90
2023-03-21T10:27:15.441Z,59.69
2023-03-21T10:29:44.321Z,58.72
2023-03-21T10:32:13.106Z,58.67
2023-03-21T10:34:43.513Z,59.15
2023-03-21T10:37:12.303Z,59.18
2023-03-21T10:39:40.902Z,58.80
2023-03-21T10:42:12.423Z,58.66
2023-03-21T10:44:40.326Z,57.79
2023-03-21T10:47:10.001Z,58.20
2023-03-21T10:50:05.709Z,57.75
2023-03-21T10:52:29.099Z,57.25
2023-03-21T10:55:06.941Z,56.53
2023-03-21T10:57:34.834Z,55.30
2023-03-21T11:00:08.342Z,55.67
2023-03-21T11:02:37.062Z,55.92
2023-03-21T11:05:05.775Z,55.15
2023-03-21T11:07:37.401Z,54.92
2023-03-21T11:10:17.188Z,55.11
2023-03-21T11:12:48.557Z,54.97
2023-03-21T11:15:27.456Z,55.58
2023-03-21T11:17:55.759Z,56.39
2023-03-21T11:20:24.200Z,55.67
2023-03-21T11:22:55.590Z,57.76
2023-03-21T11:25:25.869Z,58.69
2023-03-21T11:27:55.148Z,58.22
2023-03-21T11:30:24.520Z,57.38
2023-03-21T11:32:53.389Z,56.81
2023-03-21T11:35:23.008Z,55.57
2023-03-21T11:37:54.315Z,55.20
2023-03-21T11:40:24.220Z,55.03
2023-03-21T11:42:52.913Z,55.05
2023-03-21T11:45:21.848Z,54.54
2023-03-21T11:47:50.740Z,52.86
2023-03-21T11:50:20.628Z,51.38
2023-03-21T11:53:14.299Z,51.52
2023-03-21T11:55:47.316Z,49.46
2023-03-21T11:58:25.337Z,49.61
2023-03-21T12:00:57.249Z,48.08
2023-03-21T12:04:00.712Z,49.54
2023-03-21T12:06:31.480Z,49.12
2023-03-21T12:09:07.167Z,47.89
2023-03-21T12:11:38.993Z,47.83
2023-03-21T12:14:10.113Z,47.58
2023-03-21T12:16:44.441Z,48.31
2023-03-21T12:19:49.173Z,47.23
2023-03-21T12:22:20.373Z,46.81
2023-03-21T12:24:51.523Z,46.27
2023-03-21T12:27:20.998Z,46.63
2023-03-21T12:30:01.422Z,46.28
2023-03-21T12:32:39.602Z,45.80
2023-03-21T12:35:37.997Z,44.90
2023-03-21T12:38:13.586Z,46.20
2023-03-21T12:40:50.387Z,46.57
2023-03-21T12:43:30.119Z,46.66
2023-03-21T12:46:00.285Z,46.96
2023-03-21T12:48:32.232Z,46.50
2023-03-21T12:51:01.094Z,46.18
2023-03-21T12:53:36.096Z,46.75
2023-03-21T12:56:08.259Z,47.79
2023-03-21T12:58:43.147Z,50.58
2023-03-21T13:01:11.286Z,49.91
2023-03-21T13:03:41.782Z,47.77
2023-03-21T13:06:11.232Z,47.08
2023-03-21T13:08:40.178Z,46.91
2023-03-21T13:11:09.588Z,45.39
2023-03-21T13:13:39.922Z,45.54
2023-03-21T13:16:11.549Z,44.88
2023-03-21T13:18:44.768Z,44.09
2023-03-21T13:21:16.726Z,42.96
2023-03-21T13:23:56.927Z,40.89
2023-03-21T13:26:34.052Z,41.13
2023-03-21T13:29:02.456Z,41.26
2023-03-21T13:31:35.874Z,40.63
2023-03-21T13:34:09.927Z,40.04
2023-03-21T13:36:39.638Z,41.08
2023-03-21T13:39:07.944Z,41.83
2023-03-21T13:41:38.935Z,41.88
2023-03-21T13:44:09.848Z,41.03
2023-03-21T13:46:52.566Z,40.64
2023-03-21T13:49:28.185Z,40.73
2023-03-21T13:51:56.371Z,41.12
2023-03-21T13:54:29.665Z,41.48
2023-03-21T13:57:02.302Z,41.20
2023-03-21T13:59:44.011Z,40.53
2023-03-21T14:02:25.087Z,40.95
2023-03-21T14:05:06.626Z,41.66
2023-03-21T14:07:36.849Z,41.95
2023-03-21T14:10:06.907Z,41.98
2023-03-21T14:12:39.089Z,41.77
2023-03-21T14:15:16.258Z,42.32
2023-03-21T14:17:51.177Z,42.76
2023-03-21T14:20:21.534Z,43.00
2023-03-21T14:22:49.773Z,42.99
2023-03-21T14:25:19.179Z,42.78
2023-03-21T14:27:50.140Z,42.35
2023-03-21T14:30:22.404Z,41.97
2023-03-21T14:32:50.306Z,42.23
2023-03-21T14:35:18.181Z,41.66
2023-03-21T14:37:46.707Z,42.34
2023-03-21T14:40:22.696Z,42.49
2023-03-21T14:42:52.402Z,42.88
2023-03-21T14:45:21.839Z,43.06
2023-03-21T14:47:56.782Z,43.43
2023-03-21T14:50:26.107Z,43.94
2023-03-21T14:52:54.473Z,43.99
2023-03-21T14:55:22.380Z,43.77
2023-03-21T14:57:52.092Z,43.85
2023-03-21T15:00:24.384Z,43.92
2023-03-21T15:02:52.873Z,43.62
2023-03-21T15:05:23.283Z,43.35
2023-03-21T15:07:55.490Z,43.89
2023-03-21T15:10:24.148Z,43.62
2023-03-21T15:12:54.114Z,43.52
2023-03-21T15:15:23.882Z,44.12
2023-03-21T15:17:54.818Z,44.38
2023-03-21T15:20:23.458Z,44.20
2023-03-21T15:22:52.330Z,44.31
2023-03-21T15:25:22.185Z,44.35
2023-03-21T15:27:50.150Z,44.30
2023-03-21T15:30:23.656Z,44.75
2023-03-21T15:32:51.888Z,45.21
2023-03-21T15:35:21.895Z,45.10
2023-03-21T15:37:54.374Z,44.70
2023-03-21T15:40:23.568Z,45.18
2023-03-21T15:42:51.452Z,44.97
2023-03-21T15:45:24.666Z,45.33
2023-03-21T15:47:54.865Z,45.27
2023-03-21T15:50:27.604Z,45.42
2023-03-21T15:52:55.553Z,45.05
2023-03-21T15:55:26.224Z,45.53
2023-03-21T15:57:55.172Z,45.77
2023-03-21T16:00:26.740Z,45.57
2023-03-21T16:02:57.852Z,46.17
2023-03-21T16:05:27.673Z,45.71
2023-03-21T16:07:59.155Z,45.95
2023-03-21T16:10:29.202Z,45.98
2023-03-21T16:12:57.287Z,46.33
2023-03-21T16:15:26.939Z,46.03
2023-03-21T16:17:56.086Z,46.07
2023-03-21T16:20:25.711Z,46.19
2023-03-21T16:22:53.820Z,46.26
2023-03-21T16:25:21.812Z,46.74
2023-03-21T16:27:49.706Z,47.04
2023-03-21T16:30:19.294Z,47.07
2023-03-21T16:32:49.899Z,47.35
2023-03-21T16:35:17.969Z,47.41
2023-03-21T16:37:47.153Z,47.75
2023-03-21T16:40:18.463Z,47.94
2023-03-21T16:42:46.550Z,47.62
2023-03-21T16:45:14.783Z,48.04
2023-03-21T16:47:42.905Z,48.21
2023-03-21T16:50:21.137Z,48.09
2023-03-21T16:52:49.077Z,48.72
2023-03-21T16:55:17.022Z,48.90
2023-03-21T16:57:44.949Z,49.00
2023-03-21T17:00:16.636Z,49.22
2023-03-21T17:02:44.575Z,49.37
2023-03-21T17:05:12.716Z,49.63
2023-03-21T17:07:44.189Z,49.36
2023-03-21T17:10:16.411Z,49.86
2023-03-21T17:12:44.662Z,49.88
2023-03-21T17:15:13.766Z,50.01
2023-03-21T17:17:42.004Z,49.82
2023-03-21T17:20:18.501Z,49.97
2023-03-21T17:22:48.016Z,50.54
2023-03-21T17:25:16.211Z,50.48
2023-03-21T17:27:44.255Z,51.04
2023-03-21T17:30:18.321Z,51.08
2023-03-21T17:32:46.585Z,51.08
2023-03-21T17:35:14.559Z,51.10
2023-03-21T17:37:42.560Z,51.25
2023-03-21T17:40:13.982Z,51.14
2023-03-21T17:42:42.338Z,51.06
2023-03-21T17:45:11.414Z,51.40
2023-03-21T17:47:39.520Z,51.38
2023-03-21T17:50:12.582Z,51.31
2023-03-21T17:52:40.488Z,51.51
2023-03-21T17:55:08.854Z,52.08
2023-03-21T17:57:38.740Z,52.05
2023-03-21T18:00:11.885Z,52.30
2023-03-21T18:02:40.500Z,52.70
2023-03-21T18:05:10.094Z,53.24
2023-03-21T18:08:07.863Z,53.13
2023-03-21T18:10:26.999Z,53.38
2023-03-21T18:12:56.466Z,53.59
2023-03-21T18:15:24.772Z,53.71
2023-03-21T18:17:52.964Z,53.66
2023-03-21T18:20:23.725Z,53.87
2023-03-21T18:22:52.779Z,53.99
2023-03-21T18:25:21.271Z,54.02
2023-03-21T18:28:09.590Z,54.08
2023-03-21T18:30:56.970Z,53.78
2023-03-21T18:33:27.388Z,53.92
2023-03-21T18:35:59.860Z,54.00
2023-03-21T18:38:28.203Z,54.27
2023-03-21T18:40:56.117Z,54.12
2023-03-21T18:46:14.718Z,54.50
2023-03-21T18:48:42.868Z,54.48
2023-03-21T18:51:10.835Z,54.87
2023-03-21T18:53:39.260Z,54.66
2023-03-21T18:56:10.058Z,55.01
2023-03-21T18:58:38.635Z,55.02
2023-03-21T19:01:06.817Z,55.35
2023-03-21T19:03:37.601Z,55.55
2023-03-21T19:06:07.125Z,55.25
2023-03-21T19:08:38.692Z,55.65
2023-03-21T19:11:08.294Z,55.80
2023-03-21T19:13:36.889Z,55.61
2023-03-21T19:16:05.026Z,56.03
2023-03-21T19:18:52.051Z,55.84
2023-03-21T19:21:23.239Z,56.16
2023-03-21T19:26:39.392Z,56.10
2023-03-21T19:29:07.580Z,56.54
2023-03-21T19:31:35.561Z,56.74
2023-03-21T19:34:04.457Z,56.83
2023-03-21T19:36:34.786Z,56.96
2023-03-21T19:39:03.671Z,57.04
2023-03-21T19:41:32.091Z,57.03
2023-03-21T19:44:00.332Z,57.36
2023-03-21T19:46:28.399Z,57.33
2023-03-21T19:48:56.973Z,57.50
2023-03-21T19:51:29.807Z,57.54
2023-03-21T19:53:59.846Z,57.28
2023-03-21T19:56:28.097Z,57.53
2023-03-21T19:58:56.299Z,57.83
2023-03-21T20:01:24.816Z,57.73
2023-03-21T20:03:52.908Z,57.76
2023-03-21T20:06:22.256Z,57.95
2023-03-21T20:09:47.318Z,58.02
2023-03-21T20:11:39.778Z,58.16
2023-03-21T20:14:07.731Z,58.13
2023-03-21T20:16:36.977Z,57.96
2023-03-21T20:19:05.818Z,58.11
2023-03-21T20:21:44.439Z,58.25
2023-03-21T20:24:16.448Z,58.21
2023-03-21T20:26:46.525Z,58.04
2023-03-21T20:32:02.688Z,58.32
2023-03-21T20:34:30.792Z,58.08
2023-03-21T20:36:59.265Z,58.23
2023-03-21T20:39:29.432Z,58.16
2023-03-21T20:41:59.694Z,57.94
2023-03-21T20:44:48.445Z,58.05
2023-03-21T20:47:15.864Z,58.20
2023-03-21T20:49:44.330Z,58.03
2023-03-21T20:55:00.184Z,58.10
2023-03-21T20:57:30.220Z,57.92
2023-03-21T20:59:58.134Z,58.33
2023-03-21T21:02:26.562Z,58.34
2023-03-21T21:05:24.090Z,57.99
2023-03-21T21:07:43.612Z,58.20
2023-03-21T21:10:12.472Z,58.15
2023-03-21T21:12:45.057Z,58.21
2023-03-21T21:15:14.295Z,58.35
2023-03-21T21:20:33.597Z,58.47
2023-03-21T21:23:01.544Z,58.77
2023-03-21T21:25:30.630Z,58.72
2023-03-21T21:28:01.691Z,58.75
2023-03-21T21:30:30.416Z,58.99
2023-03-21T21:32:59.798Z,58.74
2023-03-21T21:35:27.932Z,58.91
2023-03-21T21:37:56.011Z,59.11
2023-03-21T21:40:24.263Z,59.00
2023-03-21T21:42:52.240Z,59.38
2023-03-21T21:45:21.602Z,59.13
2023-03-21T21:47:49.674Z,59.70
2023-03-21T21:50:17.650Z,59.75
2023-03-21T21:52:52.700Z,60.10
2023-03-21T21:55:20.708Z,60.16
2023-03-21T21:57:50.319Z,60.73
2023-03-21T22:00:21.437Z,60.60
2023-03-21T22:02:49.368Z,60.75
2023-03-21T22:05:18.995Z,60.91
2023-03-21T22:07:47.069Z,61.41
2023-03-21T22:10:15.143Z,61.54
2023-03-21T22:12:43.076Z,61.74
2023-03-21T22:15:12.087Z,61.77
2023-03-21T22:17:41.732Z,61.97
2023-03-21T22:20:12.054Z,62.41
2023-03-21T22:22:39.974Z,62.68
2023-03-21T22:25:09.437Z,62.81
2023-03-21T22:27:37.356Z,62.80
2023-03-21T22:30:07.645Z,63.30
2023-03-21T22:32:35.892Z,63.25
2023-03-21T22:35:05.669Z,63.36
2023-03-21T22:37:34.247Z,63.77
2023-03-21T22:40:02.112Z,63.68
2023-03-21T22:42:30.011Z,63.79
2023-03-21T22:44:57.923Z,64.23
2023-03-21T22:47:26.283Z,63.99
2023-03-21T22:49:54.151Z,64.32
2023-03-21T22:52:23.609Z,64.49
2023-03-21T22:54:51.480Z,63.93
2023-03-21T22:57:20.133Z,64.47
2023-03-21T22:59:48.013Z,64.15
2023-03-21T23:02:16.143Z,64.44
2023-03-21T23:04:43.956Z,64.49
2023-03-21T23:07:12.035Z,64.74
2023-03-21T23:09:41.300Z,65.13
2023-03-21T23:12:09.192Z,64.87
2023-03-21T23:14:37.022Z,64.72
2023-03-21T23:17:04.912Z,64.73
2023-03-21T23:19:33.280Z,64.79
2023-03-21T23:22:01.261Z,65.12
2023-03-21T23:24:29.088Z,65.12
2023-03-21T23:26:58.310Z,64.97
2023-03-21T23:29:26.126Z,65.25
2023-03-21T23:31:53.953Z,65.26
2023-03-21T23:34:21.828Z,65.57
2023-03-21T23:36:49.620Z,65.46
2023-03-21T23:39:18.655Z,65.50
2023-03-21T23:41:46.582Z,65.69
2023-03-21T23:44:16.332Z,66.08
2023-03-21T23:46:44.216Z,65.85
2023-03-21T23:49:12.169Z,65.94
2023-03-21T23:51:40.071Z,65.99
2023-03-21T23:54:07.952Z,66.02
2023-03-21T23:56:35.888Z,66.10
2023-03-21T23:59:03.779Z,66.48
